createdAt,value
2023-03-06T00:01:08.945Z,0.72
2023-03-06T00:03:11.442Z,0.67
2023-03-06T00:05:15.460Z,0.62
2023-03-06T00:07:17.675Z,0.18
2023-03-06T00:09:20.015Z,0.34
2023-03-06T00:11:22.705Z,0.52
2023-03-06T00:13:26.950Z,0.89
2023-03-06T00:15:30.158Z,0.92
2023-03-06T00:17:32.677Z,0.57
2023-03-06T00:19:34.999Z,0.30
2023-03-06T00:21:37.774Z,0.63
2023-03-06T00:23:41.474Z,0.68
2023-03-06T00:25:45.818Z,0.94
2023-03-06T00:27:49.543Z,0.52
2023-03-06T00:29:56.946Z,0.54
2023-03-06T00:31:59.211Z,0.86
2023-03-06T00:34:02.894Z,0.39
2023-03-06T00:36:06.405Z,0.83
2023-03-06T00:38:12.785Z,0.60
2023-03-06T00:40:19.263Z,0.67
2023-03-06T00:42:22.120Z,0.62
2023-03-06T00:44:25.100Z,0.44
2023-03-06T00:46:27.328Z,0.88
2023-03-06T00:48:30.326Z,0.39
2023-03-06T00:50:32.999Z,0.42
2023-03-06T00:52:35.884Z,0.83
2023-03-06T00:54:38.560Z,0.39
2023-03-06T00:56:40.808Z,0.34
2023-03-06T00:58:43.263Z,0.66
2023-03-06T01:00:46.074Z,0.41
2023-03-06T01:02:48.525Z,0.64
2023-03-06T01:04:50.808Z,0.46
2023-03-06T01:06:53.398Z,0.50
2023-03-06T01:08:55.720Z,0.77
2023-03-06T01:11:00.963Z,0.76
2023-03-06T01:13:03.262Z,0.62
2023-03-06T01:15:06.301Z,0.75
2023-03-06T01:17:10.671Z,0.33
2023-03-06T01:19:13.016Z,0.37
2023-03-06T01:21:15.526Z,0.80
2023-03-06T01:23:17.886Z,0.71
2023-03-06T01:25:21.360Z,0.61
2023-03-06T01:27:26.334Z,0.73
2023-03-06T01:29:29.851Z,0.59
2023-03-06T01:31:32.769Z,0.95
2023-03-06T01:33:36.300Z,0.70
2023-03-06T01:35:39.667Z,0.70
2023-03-06T01:37:42.485Z,0.79
2023-03-06T01:39:45.033Z,0.67
2023-03-06T01:41:47.262Z,0.76
2023-03-06T01:43:50.025Z,0.70
2023-03-06T01:45:53.103Z,0.93
2023-03-06T01:47:55.661Z,0.70
2023-03-06T01:50:01.265Z,0.55
2023-03-06T01:52:09.174Z,0.65
2023-03-06T01:54:16.255Z,0.80
2023-03-06T01:56:19.332Z,0.57
2023-03-06T01:58:23.092Z,0.23
2023-03-06T02:00:28.685Z,0.39
2023-03-06T02:02:31.576Z,0.38
2023-03-06T02:04:34.788Z,0.42
2023-03-06T02:06:40.276Z,0.59
2023-03-06T02:08:42.749Z,0.59
2023-03-06T02:11:16.325Z,0.52
2023-03-06T02:13:18.928Z,0.22
2023-03-06T02:15:25.208Z,0.70
2023-03-06T02:17:30.678Z,0.31
2023-03-06T02:19:54.362Z,0.80
2023-03-06T02:21:56.793Z,0.74
2023-03-06T02:24:24.185Z,0.32
2023-03-06T02:26:28.350Z,0.29
2023-03-06T02:28:31.037Z,-0.04
2023-03-06T02:30:35.797Z,0.49
2023-03-06T02:32:38.269Z,0.12
2023-03-06T02:34:40.498Z,0.53
2023-03-06T02:36:47.732Z,0.13
2023-03-06T02:38:51.767Z,0.01
2023-03-06T02:40:58.355Z,0.05
2023-03-06T02:43:05.921Z,0.07
2023-03-06T02:45:12.895Z,0.21
2023-03-06T02:47:16.269Z,-0.42
2023-03-06T02:49:18.527Z,-0.43
2023-03-06T02:51:21.081Z,0.06
2023-03-06T02:53:24.115Z,-0.20
2023-03-06T02:55:27.116Z,-0.43
2023-03-06T02:57:31.038Z,-0.67
2023-03-06T02:59:35.490Z,-0.68
2023-03-06T03:01:39.716Z,-0.41
2023-03-06T03:03:42.433Z,-0.99
2023-03-06T03:05:45.704Z,-0.96
2023-03-06T03:07:58.189Z,-0.52
2023-03-06T03:10:00.713Z,-0.63
2023-03-06T03:12:08.091Z,-0.67
2023-03-06T03:14:10.443Z,-0.58
2023-03-06T03:16:15.890Z,-0.28
2023-03-06T03:18:18.402Z,-0.93
2023-03-06T03:20:22.509Z,-0.18
2023-03-06T03:22:25.465Z,-0.62
2023-03-06T03:24:27.770Z,-0.81
2023-03-06T03:26:30.842Z,-0.32
2023-03-06T03:28:42.543Z,-0.51
2023-03-06T03:30:47.090Z,-0.17
2023-03-06T03:32:49.439Z,-0.70
2023-03-06T03:34:52.528Z,-0.89
2023-03-06T03:36:55.334Z,-0.72
2023-03-06T03:38:57.823Z,-0.83
2023-03-06T03:41:04.397Z,-0.52
2023-03-06T03:43:07.766Z,-0.52
2023-03-06T03:45:11.401Z,-0.84
2023-03-06T03:47:14.337Z,-0.62
2023-03-06T03:49:17.204Z,-0.77
2023-03-06T03:51:20.159Z,-0.66
2023-03-06T03:53:26.949Z,-0.41
2023-03-06T03:55:29.648Z,-0.20
2023-03-06T03:57:32.602Z,-0.60
2023-03-06T03:59:36.084Z,-0.38
2023-03-06T04:02:05.374Z,-0.84
2023-03-06T04:04:13.194Z,-0.39
2023-03-06T04:06:17.594Z,-0.59
2023-03-06T04:08:21.996Z,-0.27
2023-03-06T04:10:25.444Z,-0.57
2023-03-06T04:12:28.335Z,-0.58
2023-03-06T04:14:31.576Z,-0.54
2023-03-06T04:16:34.770Z,-0.56
2023-03-06T04:18:37.277Z,-0.39
2023-03-06T04:20:41.261Z,-0.73
2023-03-06T04:22:43.707Z,-0.61
2023-03-06T04:24:50.026Z,-0.53
2023-03-06T04:26:53.686Z,-0.32
2023-03-06T04:28:56.963Z,-0.42
2023-03-06T04:31:00.216Z,-0.16
2023-03-06T04:33:03.857Z,-0.31
2023-03-06T04:35:06.609Z,-0.42
2023-03-06T04:37:25.103Z,-0.85
2023-03-06T04:39:28.589Z,-0.54
2023-03-06T04:41:31.639Z,-0.45
2023-03-06T04:43:34.264Z,-0.47
2023-03-06T04:45:38.519Z,-0.61
2023-03-06T04:47:41.580Z,-0.21
2023-03-06T04:49:44.225Z,-0.11
2023-03-06T04:51:46.430Z,-0.42
2023-03-06T04:53:48.626Z,-0.28
2023-03-06T04:55:51.021Z,-0.75
2023-03-06T04:57:54.143Z,-0.37
2023-03-06T04:59:56.441Z,-0.50
2023-03-06T05:01:58.895Z,-0.29
2023-03-06T05:04:01.568Z,-0.42
2023-03-06T05:06:04.530Z,-0.17
2023-03-06T05:08:07.606Z,-0.45
2023-03-06T05:10:16.266Z,-0.60
2023-03-06T05:12:18.623Z,-0.40
2023-03-06T05:14:21.092Z,-0.14
2023-03-06T05:16:23.852Z,-0.47
2023-03-06T05:18:26.263Z,-0.58
2023-03-06T05:20:32.554Z,0.07
2023-03-06T05:22:35.152Z,-0.19
2023-03-06T05:24:37.882Z,-0.40
2023-03-06T05:26:40.360Z,-0.28
2023-03-06T05:28:42.748Z,-0.23
2023-03-06T05:30:45.303Z,0.05
2023-03-06T05:32:48.437Z,0.01
2023-03-06T05:34:51.140Z,-0.06
2023-03-06T05:36:53.641Z,-0.41
2023-03-06T05:38:56.206Z,-0.27
2023-03-06T05:40:58.691Z,-0.10
2023-03-06T05:43:01.263Z,-0.07
2023-03-06T05:45:04.742Z,-0.07
2023-03-06T05:47:08.936Z,-0.56
2023-03-06T05:49:12.150Z,-0.17
2023-03-06T05:51:14.441Z,-0.05
2023-03-06T05:53:16.872Z,-0.19
2023-03-06T05:55:21.305Z,-0.23
2023-03-06T05:57:24.885Z,-0.19
2023-03-06T05:59:28.730Z,-0.09
2023-03-06T06:01:31.485Z,-0.05
2023-03-06T06:03:33.913Z,0.02
2023-03-06T06:05:40.243Z,0.25
2023-03-06T06:07:42.785Z,-0.07
2023-03-06T06:09:46.511Z,0.29
2023-03-06T06:12:00.816Z,-0.07
2023-03-06T06:14:03.230Z,0.27
2023-03-06T06:16:12.052Z,-0.07
2023-03-06T06:18:14.919Z,0.49
2023-03-06T06:20:17.728Z,0.50
2023-03-06T06:22:20.131Z,0.27
2023-03-06T06:24:25.357Z,0.16
2023-03-06T06:26:28.072Z,0.26
2023-03-06T06:28:31.839Z,0.51
2023-03-06T06:30:34.772Z,0.37
2023-03-06T06:32:38.368Z,0.88
2023-03-06T06:34:41.154Z,0.85
2023-03-06T06:36:43.793Z,1.03
2023-03-06T06:38:47.061Z,0.92
2023-03-06T06:41:19.344Z,1.04
2023-03-06T06:43:12.599Z,0.90
2023-03-06T06:45:15.095Z,1.40
2023-03-06T06:47:22.898Z,1.32
2023-03-06T06:49:26.255Z,1.08
2023-03-06T06:51:32.646Z,1.52
2023-03-06T06:53:34.791Z,1.18
2023-03-06T06:55:37.976Z,1.19
2023-03-06T06:57:43.048Z,1.22
2023-03-06T06:59:45.857Z,1.15
2023-03-06T07:01:48.736Z,1.22
2023-03-06T07:03:51.781Z,1.29
2023-03-06T07:05:56.580Z,1.28
2023-03-06T07:07:59.162Z,1.71
2023-03-06T07:10:01.857Z,1.45
2023-03-06T07:12:04.287Z,1.72
2023-03-06T07:14:06.979Z,1.83
2023-03-06T07:16:09.970Z,1.93
2023-03-06T07:18:12.464Z,1.74
2023-03-06T07:20:16.347Z,2.10
2023-03-06T07:22:19.093Z,2.28
2023-03-06T07:24:21.533Z,2.26
2023-03-06T07:26:24.951Z,2.16
2023-03-06T07:28:27.411Z,2.19
2023-03-06T07:30:29.798Z,2.17
2023-03-06T07:32:32.136Z,2.26
2023-03-06T07:34:34.841Z,2.36
2023-03-06T07:36:37.327Z,2.47
2023-03-06T07:38:39.710Z,2.75
2023-03-06T07:40:42.544Z,2.48
2023-03-06T07:42:44.892Z,2.65
2023-03-06T07:44:51.335Z,2.92
2023-03-06T07:46:54.033Z,3.04
2023-03-06T07:48:58.928Z,3.05
2023-03-06T07:51:05.126Z,2.80
2023-03-06T07:53:08.163Z,3.12
2023-03-06T07:55:11.790Z,2.93
2023-03-06T07:57:14.654Z,3.30
2023-03-06T07:59:17.085Z,3.22
2023-03-06T08:01:24.506Z,3.34
2023-03-06T08:03:27.282Z,3.17
2023-03-06T08:05:30.259Z,3.49
2023-03-06T08:07:32.966Z,3.41
2023-03-06T08:09:36.344Z,3.52
2023-03-06T08:11:38.821Z,3.82
2023-03-06T08:13:41.960Z,3.94
2023-03-06T08:15:49.541Z,3.93
2023-03-06T08:17:53.226Z,3.79
2023-03-06T08:19:55.864Z,3.74
2023-03-06T08:21:58.161Z,3.90
2023-03-06T08:24:00.648Z,3.72
2023-03-06T08:26:06.350Z,3.56
2023-03-06T08:28:08.770Z,3.82
2023-03-06T08:30:12.778Z,3.61
2023-03-06T08:32:15.504Z,3.47
2023-03-06T08:34:20.950Z,3.87
2023-03-06T08:36:24.363Z,4.17
2023-03-06T08:38:26.830Z,3.97
2023-03-06T08:40:30.890Z,4.00
2023-03-06T08:42:33.322Z,4.04
2023-03-06T08:44:36.069Z,4.21
2023-03-06T08:46:38.696Z,4.18
2023-03-06T08:48:42.018Z,4.32
2023-03-06T08:50:44.840Z,4.41
2023-03-06T08:52:47.245Z,4.30
2023-03-06T08:54:49.977Z,4.26
2023-03-06T08:56:54.408Z,4.75
2023-03-06T08:58:58.972Z,4.54
2023-03-06T09:01:01.445Z,4.54
2023-03-06T09:03:05.026Z,4.63
2023-03-06T09:05:09.214Z,4.70
2023-03-06T09:07:11.566Z,4.51
2023-03-06T09:09:14.624Z,4.44
2023-03-06T09:11:17.088Z,4.21
2023-03-06T09:13:19.997Z,4.40
2023-03-06T09:15:23.985Z,4.59
2023-03-06T09:17:26.519Z,4.72
2023-03-06T09:19:29.727Z,4.41
2023-03-06T09:21:32.440Z,4.81
2023-03-06T09:23:36.100Z,4.85
2023-03-06T09:25:38.681Z,4.90
2023-03-06T09:27:41.616Z,4.75
2023-03-06T09:29:44.093Z,5.15
2023-03-06T09:31:46.506Z,5.04
2023-03-06T09:33:48.833Z,5.10
2023-03-06T09:35:57.536Z,5.01
2023-03-06T09:38:00.116Z,5.09
2023-03-06T09:40:05.286Z,5.37
2023-03-06T09:42:09.264Z,5.52
2023-03-06T09:44:16.889Z,5.85
2023-03-06T09:46:33.341Z,5.57
2023-03-06T09:48:59.161Z,5.72
2023-03-06T09:51:39.751Z,5.53
2023-03-06T09:54:15.339Z,6.18
2023-03-06T09:56:23.732Z,6.18
2023-03-06T09:58:30.590Z,6.17
2023-03-06T10:01:04.937Z,6.01
2023-03-06T10:03:36.609Z,6.52
2023-03-06T10:05:44.317Z,6.28
2023-03-06T10:07:53.388Z,6.60
2023-03-06T10:10:03.334Z,6.47
2023-03-06T10:12:19.434Z,6.35
2023-03-06T10:14:46.511Z,6.74
2023-03-06T10:16:51.138Z,6.52
2023-03-06T10:18:56.880Z,6.98
2023-03-06T10:21:18.774Z,7.07
2023-03-06T10:23:45.857Z,7.04
2023-03-06T10:26:02.340Z,7.15
2023-03-06T10:28:18.548Z,7.29
2023-03-06T10:30:58.529Z,7.36
2023-03-06T10:33:27.152Z,6.76
2023-03-06T10:35:40.761Z,7.24
2023-03-06T10:37:43.577Z,7.29
2023-03-06T10:39:46.867Z,7.27
2023-03-06T10:41:50.391Z,7.32
2023-03-06T10:44:02.372Z,7.38
2023-03-06T10:46:06.646Z,7.16
2023-03-06T10:48:12.385Z,7.34
2023-03-06T10:50:25.483Z,7.20
2023-03-06T10:52:35.127Z,7.11
2023-03-06T10:54:40.554Z,6.78
2023-03-06T10:56:44.574Z,6.65
2023-03-06T10:58:46.978Z,6.59
2023-03-06T11:01:19.874Z,6.63
2023-03-06T11:03:25.169Z,6.60
2023-03-06T11:05:27.957Z,6.46
2023-03-06T11:07:32.980Z,6.41
2023-03-06T11:09:36.693Z,6.49
2023-03-06T11:11:39.071Z,6.54
2023-03-06T11:13:44.586Z,6.75
2023-03-06T11:16:07.632Z,6.60
2023-03-06T11:18:09.972Z,6.84
2023-03-06T11:20:20.379Z,6.72
2023-03-06T11:22:23.212Z,6.69
2023-03-06T11:24:26.122Z,6.75
2023-03-06T11:26:35.013Z,6.76
2023-03-06T11:29:02.041Z,6.93
2023-03-06T11:31:09.018Z,6.77
2023-03-06T11:33:28.886Z,7.02
2023-03-06T11:35:38.816Z,7.10
2023-03-06T11:37:57.952Z,7.48
2023-03-06T11:40:36.257Z,7.66
2023-03-06T11:42:50.192Z,7.69
2023-03-06T11:45:03.045Z,8.09
2023-03-06T11:47:20.109Z,8.07
2023-03-06T11:49:33.489Z,8.22
2023-03-06T11:51:42.923Z,8.57
2023-03-06T11:53:45.650Z,8.57
2023-03-06T11:56:04.008Z,8.87
2023-03-06T11:58:12.808Z,9.10
2023-03-06T12:00:27.800Z,9.40
2023-03-06T12:02:43.244Z,9.59
2023-03-06T12:05:05.361Z,9.78
2023-03-06T12:07:37.566Z,10.18
2023-03-06T12:09:49.785Z,10.22
2023-03-06T12:12:29.952Z,10.08
2023-03-06T12:14:43.644Z,9.96
2023-03-06T12:17:28.977Z,9.96
2023-03-06T12:20:00.563Z,9.98
2023-03-06T12:22:24.904Z,9.51
2023-03-06T12:25:17.806Z,9.50
2023-03-06T12:27:47.871Z,9.39
2023-03-06T12:30:28.481Z,9.76
2023-03-06T12:32:52.712Z,9.58
2023-03-06T12:35:21.460Z,8.63
2023-03-06T12:37:56.204Z,8.98
2023-03-06T12:40:19.742Z,9.03
2023-03-06T12:42:41.179Z,9.01
2023-03-06T12:44:49.640Z,9.26
2023-03-06T12:47:03.072Z,9.14
2023-03-06T12:49:32.895Z,9.15
2023-03-06T12:51:36.469Z,9.07
2023-03-06T12:53:41.314Z,8.82
2023-03-06T12:55:49.484Z,8.50
2023-03-06T12:57:53.123Z,8.45
2023-03-06T12:59:56.136Z,8.35
2023-03-06T13:02:09.036Z,8.42
2023-03-06T13:04:52.973Z,8.20
2023-03-06T13:07:15.797Z,7.89
2023-03-06T13:09:26.703Z,7.82
2023-03-06T13:11:50.332Z,7.58
2023-03-06T13:13:53.994Z,7.34
2023-03-06T13:16:02.453Z,7.99
2023-03-06T13:18:22.962Z,7.93
2023-03-06T13:20:39.576Z,7.70
2023-03-06T13:22:47.157Z,7.54
2023-03-06T13:25:30.702Z,7.71
2023-03-06T13:27:54.963Z,7.65
2023-03-06T13:30:06.475Z,7.34
2023-03-06T13:32:14.844Z,7.60
2023-03-06T13:34:39.150Z,7.57
2023-03-06T13:36:41.944Z,7.16
2023-03-06T13:38:44.364Z,7.41
2023-03-06T13:40:47.018Z,6.82
2023-03-06T13:42:52.358Z,7.33
2023-03-06T13:44:56.831Z,7.02
2023-03-06T13:47:02.898Z,6.95
2023-03-06T13:49:08.165Z,7.18
2023-03-06T13:51:25.705Z,6.50
2023-03-06T13:53:46.930Z,6.74
2023-03-06T13:56:21.333Z,6.66
2023-03-06T13:58:32.534Z,6.34
2023-03-06T14:01:13.784Z,5.80
2023-03-06T14:03:35.064Z,5.93
2023-03-06T14:05:47.369Z,5.78
2023-03-06T14:08:24.418Z,5.84
2023-03-06T14:10:27.105Z,5.45
2023-03-06T14:12:36.071Z,5.43
2023-03-06T14:14:43.464Z,5.51
2023-03-06T14:16:51.001Z,5.32
2023-03-06T14:18:59.403Z,5.25
2023-03-06T14:21:05.054Z,5.40
2023-03-06T14:23:42.791Z,5.63
2023-03-06T14:25:46.763Z,5.40
2023-03-06T14:27:53.555Z,5.45
2023-03-06T14:30:09.118Z,5.20
2023-03-06T14:32:12.544Z,5.53
2023-03-06T14:34:17.777Z,5.67
2023-03-06T14:36:23.955Z,5.68
2023-03-06T14:38:28.792Z,5.63
2023-03-06T14:40:36.580Z,5.51
2023-03-06T14:42:39.109Z,5.38
2023-03-06T14:44:41.948Z,5.57
2023-03-06T14:46:46.979Z,5.26
2023-03-06T14:48:50.290Z,5.36
2023-03-06T14:50:56.474Z,5.39
2023-03-06T14:53:04.552Z,5.27
2023-03-06T14:55:16.264Z,5.35
2023-03-06T14:57:22.347Z,5.44
2023-03-06T14:59:28.871Z,5.33
2023-03-06T15:01:41.341Z,5.38
2023-03-06T15:03:48.937Z,5.38
2023-03-06T15:05:52.530Z,5.44
2023-03-06T15:08:01.426Z,5.42
2023-03-06T15:10:06.844Z,5.49
2023-03-06T15:12:21.698Z,5.77
2023-03-06T15:14:33.994Z,5.52
2023-03-06T15:16:36.585Z,5.40
2023-03-06T15:19:05.159Z,5.44
2023-03-06T15:21:10.650Z,5.78
2023-03-06T15:23:34.733Z,5.31
2023-03-06T15:25:37.378Z,5.47
2023-03-06T15:27:39.921Z,5.45
2023-03-06T15:29:42.371Z,5.30
2023-03-06T15:31:46.476Z,5.24
2023-03-06T15:34:06.889Z,5.67
2023-03-06T15:36:31.747Z,5.60
2023-03-06T15:38:42.221Z,5.60
2023-03-06T15:40:58.663Z,5.29
2023-03-06T15:43:01.868Z,5.04
2023-03-06T15:45:16.347Z,5.28
2023-03-06T15:47:19.447Z,5.32
2023-03-06T15:49:22.330Z,5.46
2023-03-06T15:51:25.860Z,5.39
2023-03-06T15:53:28.844Z,5.12
2023-03-06T15:55:32.916Z,5.15
2023-03-06T15:57:35.387Z,5.44
2023-03-06T15:59:43.604Z,5.17
2023-03-06T16:01:46.118Z,4.94
2023-03-06T16:03:49.836Z,5.13
2023-03-06T16:05:52.380Z,4.99
2023-03-06T16:07:55.789Z,5.16
2023-03-06T16:09:58.156Z,4.96
2023-03-06T16:12:00.759Z,5.13
2023-03-06T16:14:04.224Z,4.78
2023-03-06T16:16:07.660Z,5.22
2023-03-06T16:18:12.517Z,5.12
2023-03-06T16:20:20.444Z,5.27
2023-03-06T16:22:22.822Z,5.03
2023-03-06T16:24:27.021Z,4.72
2023-03-06T16:26:34.994Z,5.18
2023-03-06T16:28:40.930Z,4.86
2023-03-06T16:30:44.771Z,4.97
2023-03-06T16:32:47.684Z,4.91
2023-03-06T16:34:50.169Z,5.00
2023-03-06T16:36:53.011Z,4.54
2023-03-06T16:38:55.524Z,5.08
2023-03-06T16:40:57.894Z,4.77
2023-03-06T16:43:00.656Z,4.93
2023-03-06T16:45:03.486Z,4.51
2023-03-06T16:47:05.921Z,4.47
2023-03-06T16:49:14.060Z,4.56
2023-03-06T16:51:19.874Z,4.33
2023-03-06T16:53:22.336Z,4.44
2023-03-06T16:55:27.166Z,4.38
2023-03-06T16:57:35.806Z,4.41
2023-03-06T16:59:38.294Z,4.31
2023-03-06T17:01:43.517Z,4.32
2023-03-06T17:03:46.898Z,4.28
2023-03-06T17:05:49.375Z,4.13
2023-03-06T17:07:52.233Z,4.51
2023-03-06T17:09:54.812Z,4.51
2023-03-06T17:11:57.245Z,4.16
2023-03-06T17:13:59.614Z,4.11
2023-03-06T17:16:02.444Z,4.09
2023-03-06T17:18:05.505Z,4.25
2023-03-06T17:20:09.215Z,4.08
2023-03-06T17:22:11.733Z,4.23
2023-03-06T17:24:14.227Z,4.24
2023-03-06T17:26:19.320Z,4.06
2023-03-06T17:28:22.164Z,4.31
2023-03-06T17:30:24.741Z,4.25
2023-03-06T17:32:28.822Z,4.28
2023-03-06T17:34:31.253Z,4.20
2023-03-06T17:36:33.794Z,4.23
2023-03-06T17:38:37.200Z,4.34
2023-03-06T17:40:39.496Z,4.26
2023-03-06T17:42:42.505Z,4.16
2023-03-06T17:44:45.149Z,4.40
2023-03-06T17:46:47.782Z,4.20
2023-03-06T17:48:50.282Z,4.21
2023-03-06T17:50:56.777Z,4.18
2023-03-06T17:52:59.451Z,3.75
2023-03-06T17:55:02.064Z,4.31
2023-03-06T17:57:06.005Z,4.17
2023-03-06T17:59:09.172Z,4.00
2023-03-06T18:01:17.865Z,4.11
2023-03-06T18:03:20.457Z,3.78
2023-03-06T18:05:23.154Z,3.77
2023-03-06T18:07:25.768Z,3.72
2023-03-06T18:09:28.355Z,3.78
2023-03-06T18:11:32.058Z,3.85
2023-03-06T18:13:36.677Z,3.74
2023-03-06T18:15:41.148Z,3.90
2023-03-06T18:17:43.661Z,3.19
2023-03-06T18:19:46.318Z,3.10
2023-03-06T18:21:48.887Z,3.52
2023-03-06T18:23:51.834Z,3.19
2023-03-06T18:26:08.288Z,3.20
2023-03-06T18:28:13.757Z,3.33
2023-03-06T18:30:16.773Z,3.21
2023-03-06T18:32:19.416Z,3.06
2023-03-06T18:34:22.406Z,3.27
2023-03-06T18:36:28.155Z,3.01
2023-03-06T18:38:31.326Z,2.98
2023-03-06T18:40:34.346Z,3.13
2023-03-06T18:42:37.194Z,3.27
2023-03-06T18:44:39.704Z,2.94
2023-03-06T18:46:42.753Z,2.91
2023-03-06T18:48:45.383Z,3.10
2023-03-06T18:50:48.182Z,2.81
2023-03-06T18:52:50.802Z,2.85
2023-03-06T18:54:53.887Z,2.56
2023-03-06T18:56:56.547Z,2.35
2023-03-06T18:59:07.674Z,2.56
2023-03-06T19:01:10.711Z,2.47
2023-03-06T19:03:13.610Z,2.66
2023-03-06T19:05:17.755Z,2.57
2023-03-06T19:07:20.224Z,2.40
2023-03-06T19:09:22.688Z,2.25
2023-03-06T19:11:27.326Z,2.15
2023-03-06T19:13:30.858Z,2.21
2023-03-06T19:15:34.210Z,2.57
2023-03-06T19:17:38.011Z,2.48
2023-03-06T19:19:40.831Z,2.17
2023-03-06T19:21:43.448Z,2.10
2023-03-06T19:23:46.789Z,2.09
2023-03-06T19:25:56.909Z,1.96
2023-03-06T19:28:00.337Z,1.82
2023-03-06T19:30:03.071Z,1.81
2023-03-06T19:32:06.114Z,1.65
2023-03-06T19:34:08.858Z,1.75
2023-03-06T19:36:14.388Z,1.82
2023-03-06T19:38:16.994Z,1.93
2023-03-06T19:40:20.410Z,1.80
2023-03-06T19:42:23.067Z,1.63
2023-03-06T19:44:25.787Z,1.64
2023-03-06T19:46:28.522Z,1.95
2023-03-06T19:48:30.912Z,1.38
2023-03-06T19:50:34.797Z,1.62
2023-03-06T19:52:39.577Z,1.50
2023-03-06T19:54:41.891Z,1.42
2023-03-06T19:56:44.325Z,1.29
2023-03-06T19:58:47.819Z,1.75
2023-03-06T20:00:50.461Z,1.37
2023-03-06T20:02:53.446Z,1.24
2023-03-06T20:04:55.905Z,1.41
2023-03-06T20:07:00.044Z,1.26
2023-03-06T20:09:05.686Z,1.45
2023-03-06T20:11:22.850Z,1.06
2023-03-06T20:13:25.313Z,1.20
2023-03-06T20:15:28.430Z,1.12
2023-03-06T20:17:34.080Z,1.09
2023-03-06T20:19:37.152Z,0.96
2023-03-06T20:21:40.002Z,1.31
2023-03-06T20:23:43.700Z,1.09
2023-03-06T20:25:46.254Z,1.18
2023-03-06T20:27:49.173Z,1.06
2023-03-06T20:29:51.809Z,1.02
2023-03-06T20:31:55.849Z,0.82
2023-03-06T20:33:59.828Z,0.91
2023-03-06T20:36:02.869Z,0.66
2023-03-06T20:38:05.428Z,0.78
2023-03-06T20:40:08.947Z,1.05
2023-03-06T20:42:11.939Z,0.88
2023-03-06T20:44:18.344Z,0.88
2023-03-06T20:46:22.490Z,0.82
2023-03-06T20:48:24.975Z,0.47
2023-03-06T20:50:28.173Z,0.67
2023-03-06T20:52:30.943Z,0.69
2023-03-06T20:54:33.621Z,0.78
2023-03-06T20:56:39.971Z,0.69
2023-03-06T20:58:42.961Z,0.86
2023-03-06T21:00:45.559Z,0.37
2023-03-06T21:02:48.563Z,0.92
2023-03-06T21:04:51.144Z,0.69
2023-03-06T21:06:54.834Z,0.96
2023-03-06T21:08:59.223Z,0.86
2023-03-06T21:11:01.620Z,0.47
2023-03-06T21:13:04.166Z,1.00
2023-03-06T21:15:07.298Z,0.27
2023-03-06T21:17:09.751Z,0.97
2023-03-06T21:19:12.936Z,1.00
2023-03-06T21:21:18.793Z,1.03
2023-03-06T21:23:21.248Z,0.92
2023-03-06T21:25:24.011Z,0.97
2023-03-06T21:27:26.620Z,0.89
2023-03-06T21:29:29.013Z,0.83
2023-03-06T21:31:33.760Z,1.08
2023-03-06T21:33:37.020Z,0.78
2023-03-06T21:35:46.308Z,1.13
2023-03-06T21:37:49.114Z,0.57
2023-03-06T21:39:51.868Z,0.75
2023-03-06T21:41:54.196Z,1.00
2023-03-06T21:43:59.220Z,0.39
2023-03-06T21:46:01.978Z,0.59
2023-03-06T21:48:04.909Z,0.72
2023-03-06T21:50:10.390Z,0.81
2023-03-06T21:52:12.998Z,0.59
2023-03-06T21:54:15.861Z,0.65
2023-03-06T21:56:21.355Z,0.55
2023-03-06T21:58:24.091Z,0.69
2023-03-06T22:00:26.621Z,0.65
2023-03-06T22:02:29.888Z,0.79
2023-03-06T22:04:32.461Z,0.74
2023-03-06T22:06:35.680Z,0.44
2023-03-06T22:08:38.209Z,0.89
2023-03-06T22:10:41.486Z,0.97
2023-03-06T22:12:46.161Z,0.60
2023-03-06T22:14:48.867Z,0.71
2023-03-06T22:16:52.117Z,0.98
2023-03-06T22:18:54.746Z,0.58
2023-03-06T22:20:57.376Z,0.35
2023-03-06T22:22:59.793Z,0.39
2023-03-06T22:25:02.406Z,0.90
2023-03-06T22:27:05.158Z,0.45
2023-03-06T22:29:07.684Z,0.71
2023-03-06T22:31:19.205Z,0.26
2023-03-06T22:33:21.549Z,0.32
2023-03-06T22:35:24.407Z,0.75
2023-03-06T22:37:27.163Z,0.71
2023-03-06T22:39:29.558Z,0.52
2023-03-06T22:41:32.367Z,0.65
2023-03-06T22:43:35.664Z,0.65
2023-03-06T22:45:38.382Z,0.65
2023-03-06T22:47:40.894Z,0.57
2023-03-06T22:49:43.266Z,0.80
2023-03-06T22:51:45.724Z,0.75
2023-03-06T22:53:49.410Z,0.40
2023-03-06T22:55:51.729Z,0.45
2023-03-06T22:57:54.733Z,0.84
2023-03-06T22:59:56.952Z,0.78
2023-03-06T23:01:59.546Z,0.80
2023-03-06T23:04:04.080Z,0.70
2023-03-06T23:06:13.140Z,0.96
2023-03-06T23:08:15.481Z,0.73
2023-03-06T23:10:19.622Z,0.88
2023-03-06T23:12:42.145Z,0.97
2023-03-06T23:15:03.404Z,0.75
2023-03-06T23:17:23.997Z,0.76
2023-03-06T23:19:44.976Z,1.16
2023-03-06T23:22:05.851Z,0.99
2023-03-06T23:24:26.802Z,0.77
2023-03-06T23:26:31.243Z,1.07
2023-03-06T23:28:35.253Z,1.06
2023-03-06T23:30:39.583Z,1.05
2023-03-06T23:32:43.772Z,1.08
2023-03-06T23:34:49.074Z,0.92
2023-03-06T23:36:51.958Z,1.14
2023-03-06T23:38:56.352Z,1.23
2023-03-06T23:41:07.471Z,1.25
2023-03-06T23:43:10.283Z,1.23
2023-03-06T23:45:12.768Z,1.17
2023-03-06T23:47:17.534Z,0.99
2023-03-06T23:49:21.890Z,1.06
2023-03-06T23:51:24.476Z,1.04
2023-03-06T23:53:27.062Z,0.63
2023-03-06T23:55:29.632Z,0.76
2023-03-06T23:57:32.113Z,0.59
2023-03-06T23:59:34.261Z,0.45
